Time;durP1;ratioP1;P1;durP2;ratioP2;P2;SDS_P1;SDS_P2;PMS_P1;PMS_P2;Temp;Humidity;BMP_temperature;BMP_pressure;BME280_temperature;BME280_humidity;BME280_pressure;Samples;Min_cycle;Max_cycle;Signal;HPM_P1;HPM_P2
2021/05/08 00:01:12;;;;;;;0.30;0.15;;;16.30;54.90;;;;;;4999987;28;20041;-82
2021/05/08 00:03:38;;;;;;;2.45;0.30;;;16.20;54.90;;;;;;5009421;28;20064;-80
2021/05/08 00:06:09;;;;;;;1.85;0.32;;;16.20;55.00;;;;;;4977781;28;20045;-79
2021/05/08 00:08:35;;;;;;;0.00;0.00;;;16.10;55.10;;;;;;5037294;28;20034;-80
2021/05/08 00:11:02;;;;;;;0.20;0.00;;;16.10;55.10;;;;;;4990113;28;20033;-80
2021/05/08 00:13:28;;;;;;;0.35;0.25;;;16.10;55.80;;;;;;5033115;28;20417;-80
2021/05/08 00:15:54;;;;;;;0.47;0.22;;;16.10;55.30;;;;;;5012223;28;20479;-81
2021/05/08 00:18:20;;;;;;;0.20;0.00;;;16.10;55.30;;;;;;5013337;28;20026;-80
2021/05/08 00:20:46;;;;;;;0.20;0.10;;;16.10;55.30;;;;;;5026393;28;20037;-80
2021/05/08 00:23:12;;;;;;;0.75;0.20;;;16.20;55.30;;;;;;5013631;28;20390;-80
2021/05/08 00:25:38;;;;;;;0.85;0.20;;;16.20;55.30;;;;;;5014919;28;20033;-80
2021/05/08 00:28:04;;;;;;;0.55;0.08;;;16.20;55.20;;;;;;5012687;28;20038;-80
2021/05/08 00:30:32;;;;;;;0.22;0.03;;;16.20;55.20;;;;;;5012840;28;20049;-81
2021/05/08 00:32:58;;;;;;;2.50;0.13;;;16.30;55.30;;;;;;5013544;28;20394;-80
2021/05/08 00:35:24;;;;;;;0.43;0.10;;;16.30;55.30;;;;;;5041147;28;20029;-80
2021/05/08 00:37:50;;;;;;;0.20;0.00;;;16.30;55.30;;;;;;5011738;28;20029;-80
2021/05/08 00:40:16;;;;;;;1.02;0.35;;;16.30;55.30;;;;;;5011871;28;20080;-81
2021/05/08 00:42:42;;;;;;;7.53;0.20;;;16.30;55.30;;;;;;5012256;28;20045;-81
2021/05/08 00:45:09;;;;;;;0.43;0.10;;;16.30;55.40;;;;;;5012051;28;20395;-81
2021/05/08 00:47:40;;;;;;;1.65;0.22;;;16.30;55.40;;;;;;5021125;28;20034;-81
2021/05/08 00:50:07;;;;;;;1.17;0.20;;;16.30;55.50;;;;;;5011321;28;20030;-80
2021/05/08 00:52:33;;;;;;;0.15;0.05;;;16.30;55.50;;;;;;5010405;28;20049;-81
2021/05/08 00:54:59;;;;;;;0.20;0.10;;;16.30;55.50;;;;;;5013252;28;20398;-80
2021/05/08 00:57:26;;;;;;;0.00;0.00;;;16.30;55.50;;;;;;5013166;28;20030;-80
2021/05/08 00:59:52;;;;;;;0.22;0.10;;;16.40;55.70;;;;;;5024704;28;20042;-81
2021/05/08 01:02:18;;;;;;;0.05;0.00;;;16.30;55.60;;;;;;5011189;28;20049;-81
2021/05/08 01:04:44;;;;;;;0.10;0.00;;;16.30;55.60;;;;;;5011478;28;20037;-81
2021/05/08 01:07:10;;;;;;;2.65;0.10;;;16.40;55.70;;;;;;5011703;28;20034;-81
2021/05/08 01:09:36;;;;;;;0.20;0.00;;;16.30;55.70;;;;;;5011549;28;20030;-80
2021/05/08 01:12:02;;;;;;;1.13;0.05;;;16.40;55.80;;;;;;4996715;28;20390;-80
2021/05/08 01:14:28;;;;;;;0.52;0.15;;;16.40;55.80;;;;;;5012990;28;20030;-80
2021/05/08 01:16:54;;;;;;;0.10;0.00;;;16.30;55.80;;;;;;5009409;28;20038;-80
2021/05/08 01:19:21;;;;;;;0.30;0.10;;;16.30;55.90;;;;;;5009963;28;20037;-80
2021/05/08 01:21:47;;;;;;;2.10;0.10;;;16.30;55.90;;;;;;5010336;28;20079;-81
2021/05/08 01:24:13;;;;;;;5.38;0.20;;;16.40;56.00;;;;;;5009841;28;20030;-81
2021/05/08 01:26:39;;;;;;;0.40;0.10;;;16.40;56.10;;;;;;5041843;28;20038;-80
2021/05/08 01:29:05;;;;;;;0.00;0.00;;;16.40;56.10;;;;;;4992908;28;20038;-81
2021/05/08 01:31:32;;;;;;;0.30;0.10;;;16.40;56.20;;;;;;5031985;28;20034;-81
2021/05/08 01:33:59;;;;;;;0.30;0.10;;;16.30;56.30;;;;;;5011053;28;20041;-80
2021/05/08 01:36:26;;;;;;;0.00;0.00;;;16.30;56.30;;;;;;4995266;28;20034;-80
2021/05/08 01:38:53;;;;;;;3.00;0.10;;;16.30;56.40;;;;;;5011343;28;20034;-79
2021/05/08 01:41:19;;;;;;;0.00;0.00;;;16.30;56.50;;;;;;5009185;28;20034;-81
2021/05/08 01:43:45;;;;;;;0.00;0.00;;;16.20;56.60;;;;;;5010798;28;20387;-80
2021/05/08 01:46:12;;;;;;;0.00;0.00;;;16.20;56.70;;;;;;5011163;28;20046;-80
2021/05/08 01:48:38;;;;;;;0.25;0.10;;;16.20;56.80;;;;;;5011911;28;20038;-80
2021/05/08 01:51:04;;;;;;;0.00;0.00;;;16.20;56.90;;;;;;5013428;28;20034;-80
2021/05/08 01:53:30;;;;;;;3.47;0.05;;;16.20;56.90;;;;;;5017827;28;20049;-80
2021/05/08 01:55:56;;;;;;;2.20;0.25;;;16.20;57.00;;;;;;5013892;28;20034;-81
2021/05/08 01:58:22;;;;;;;0.13;0.10;;;16.20;57.10;;;;;;5009257;28;20033;-80
2021/05/08 02:00:49;;;;;;;0.10;0.00;;;16.20;57.20;;;;;;5010889;28;20511;-81
2021/05/08 02:03:15;;;;;;;0.28;0.10;;;16.20;57.30;;;;;;5008214;28;20387;-81
2021/05/08 02:05:42;;;;;;;0.75;0.35;;;16.20;57.30;;;;;;5003895;28;20045;-80
2021/05/08 02:08:10;;;;;;;0.38;0.10;;;16.20;57.40;;;;;;5007971;28;20364;-80
2021/05/08 02:10:36;;;;;;;0.32;0.03;;;16.20;57.50;;;;;;4993285;28;20037;-80
2021/05/08 02:13:06;;;;;;;0.00;0.00;;;16.20;57.60;;;;;;4993690;28;20029;-79
2021/05/08 02:15:33;;;;;;;0.10;0.00;;;16.20;57.70;;;;;;5036803;28;23696;-80
2021/05/08 02:17:59;;;;;;;0.20;0.08;;;16.20;57.70;;;;;;5043227;28;20040;-80
2021/05/08 02:20:29;;;;;;;0.05;0.00;;;16.20;58.40;;;;;;5005692;28;20057;-80
2021/05/08 02:22:56;;;;;;;0.77;0.10;;;16.20;57.90;;;;;;5022464;28;20030;-80
2021/05/08 02:25:23;;;;;;;0.70;0.15;;;16.20;58.00;;;;;;5014957;28;20042;-81
2021/05/08 02:27:49;;;;;;;0.55;0.17;;;16.20;58.10;;;;;;5009904;28;20049;-80
2021/05/08 02:30:18;;;;;;;0.20;0.10;;;16.10;58.20;;;;;;5041846;28;20398;-80
2021/05/08 02:32:44;;;;;;;4.82;0.43;;;16.10;58.30;;;;;;5026343;28;20029;-80
2021/05/08 02:35:11;;;;;;;1.73;0.05;;;16.10;58.40;;;;;;5032610;28;20553;-80
2021/05/08 02:37:37;;;;;;;0.20;0.10;;;16.10;58.50;;;;;;5020948;28;20031;-80
2021/05/08 02:40:06;;;;;;;0.63;0.20;;;16.10;58.60;;;;;;5030135;28;20110;-80
2021/05/08 02:42:32;;;;;;;0.30;0.20;;;16.10;58.70;;;;;;5010715;28;20026;-80
2021/05/08 02:44:58;;;;;;;0.70;0.03;;;16.10;58.80;;;;;;5011124;28;20045;-80
2021/05/08 02:47:24;;;;;;;0.20;0.10;;;16.10;58.90;;;;;;5021008;28;20037;-80
2021/05/08 02:49:51;;;;;;;1.75;0.90;;;16.10;59.00;;;;;;5038412;28;20034;-81
2021/05/08 02:52:17;;;;;;;0.10;0.03;;;16.10;59.00;;;;;;4991595;28;20665;-80
2021/05/08 02:54:44;;;;;;;0.68;0.20;;;16.10;59.10;;;;;;5009790;28;20490;-81
2021/05/08 02:57:10;;;;;;;0.52;0.20;;;16.10;59.20;;;;;;4993826;28;20025;-82
2021/05/08 02:59:36;;;;;;;1.25;0.20;;;16.10;59.30;;;;;;5013056;28;20058;-82
2021/05/08 03:02:03;;;;;;;0.22;0.10;;;16.10;59.30;;;;;;4987376;28;20035;-82
2021/05/08 03:04:29;;;;;;;0.65;0.30;;;16.10;59.30;;;;;;5014367;28;20045;-82
2021/05/08 03:06:55;;;;;;;7.13;0.20;;;16.10;59.30;;;;;;4994428;28;20041;-82
2021/05/08 03:09:25;;;;;;;0.77;0.30;;;16.10;59.40;;;;;;4992828;28;20056;-82
2021/05/08 03:11:51;;;;;;;0.43;0.13;;;16.10;59.50;;;;;;5022324;28;20038;-82
2021/05/08 03:14:17;;;;;;;0.22;0.10;;;16.20;59.50;;;;;;4988472;28;20038;-82
2021/05/08 03:16:43;;;;;;;0.95;0.22;;;16.20;59.60;;;;;;5015779;28;20479;-82
2021/05/08 03:19:10;;;;;;;4.28;0.10;;;16.20;59.70;;;;;;5010732;28;20030;-82
2021/05/08 03:21:36;;;;;;;6.45;0.52;;;16.20;59.70;;;;;;5009526;28;20048;-81
2021/05/08 03:24:03;;;;;;;0.47;0.20;;;16.20;59.80;;;;;;5011476;28;20038;-82
2021/05/08 03:26:29;;;;;;;0.20;0.10;;;16.20;59.80;;;;;;5038285;28;20042;-81
2021/05/08 03:28:56;;;;;;;2.00;0.30;;;16.20;60.60;;;;;;5009536;28;20565;-82
2021/05/08 03:31:22;;;;;;;2.72;0.20;;;16.20;59.90;;;;;;5014884;28;20049;-82
2021/05/08 03:33:48;;;;;;;8.32;0.55;;;16.20;60.80;;;;;;5020884;28;20034;-82
2021/05/08 03:36:14;;;;;;;0.90;0.00;;;16.20;60.00;;;;;;5010838;28;20368;-82
2021/05/08 03:38:40;;;;;;;4.63;0.95;;;16.20;60.10;;;;;;5012042;28;20486;-82
2021/05/08 03:41:06;;;;;;;0.98;0.45;;;16.20;60.20;;;;;;5008900;28;20033;-82
2021/05/08 03:43:32;;;;;;;0.03;0.00;;;16.10;60.30;;;;;;5009244;28;20034;-82
2021/05/08 03:45:58;;;;;;;0.65;0.52;;;16.10;60.40;;;;;;5008660;28;20503;-81
2021/05/08 03:48:24;;;;;;;0.60;0.00;;;16.10;60.50;;;;;;5012403;28;20030;-82
2021/05/08 03:50:52;;;;;;;0.35;0.00;;;16.10;60.60;;;;;;5027103;28;20029;-81
2021/05/08 03:53:19;;;;;;;0.40;0.13;;;16.10;61.50;;;;;;5012770;28;20042;-82
2021/05/08 03:55:45;;;;;;;0.08;0.05;;;16.10;60.80;;;;;;5013668;28;20471;-82
2021/05/08 03:58:11;;;;;;;0.75;0.40;;;16.00;60.80;;;;;;5012727;28;20033;-82
2021/05/08 04:00:37;;;;;;;1.00;0.40;;;16.00;61.00;;;;;;5012273;28;20030;-82
2021/05/08 04:03:04;;;;;;;7.18;0.03;;;16.00;61.00;;;;;;5014395;28;20029;-82
2021/05/08 04:05:30;;;;;;;0.95;0.38;;;16.00;61.10;;;;;;5014721;28;20475;-82
2021/05/08 04:07:56;;;;;;;8.77;0.75;;;16.00;61.10;;;;;;5012306;28;20029;-81
2021/05/08 04:10:22;;;;;;;0.50;0.20;;;16.00;61.20;;;;;;4993029;28;20057;-82
2021/05/08 04:12:48;;;;;;;0.82;0.30;;;16.00;61.20;;;;;;5012616;28;20494;-82
2021/05/08 04:15:14;;;;;;;1.00;0.45;;;16.00;61.30;;;;;;5013128;28;20026;-82
2021/05/08 04:17:40;;;;;;;0.93;0.38;;;16.00;61.30;;;;;;5026252;28;20053;-82
2021/05/08 04:20:07;;;;;;;0.45;0.20;;;16.00;61.30;;;;;;4993702;28;20054;-82
2021/05/08 04:22:33;;;;;;;0.55;0.30;;;16.00;61.30;;;;;;5007026;28;20038;-83
2021/05/08 04:24:59;;;;;;;0.10;0.05;;;16.00;61.30;;;;;;5009611;28;20046;-80
2021/05/08 04:27:25;;;;;;;2.17;0.32;;;16.00;61.40;;;;;;5012303;28;20530;-82
2021/05/08 04:29:52;;;;;;;6.32;0.30;;;16.00;61.50;;;;;;5005486;28;20042;-82
2021/05/08 04:32:18;;;;;;;0.20;0.10;;;16.00;61.50;;;;;;5012963;28;20038;-82
2021/05/08 04:34:44;;;;;;;0.32;0.08;;;16.00;61.50;;;;;;4989186;28;20042;-80
2021/05/08 04:37:10;;;;;;;0.38;0.17;;;16.00;61.60;;;;;;5003636;28;20470;-81
2021/05/08 04:39:36;;;;;;;4.53;0.52;;;16.00;61.60;;;;;;5012146;28;20037;-82
2021/05/08 04:42:02;;;;;;;0.55;0.20;;;16.00;61.60;;;;;;5004541;28;20098;-80
2021/05/08 04:44:28;;;;;;;0.17;0.10;;;16.00;61.70;;;;;;5015962;28;20046;-80
2021/05/08 04:46:54;;;;;;;1.35;0.43;;;16.00;61.80;;;;;;5007376;28;20081;-80
2021/05/08 04:49:21;;;;;;;0.30;0.15;;;16.00;61.80;;;;;;5013128;28;20037;-81
2021/05/08 04:51:47;;;;;;;0.50;0.20;;;16.00;61.80;;;;;;5011868;28;20040;-79
2021/05/08 04:54:13;;;;;;;0.68;0.20;;;16.00;61.80;;;;;;5011497;28;20050;-82
2021/05/08 04:56:39;;;;;;;0.10;0.00;;;16.10;61.90;;;;;;5034653;28;20042;-80
2021/05/08 04:59:05;;;;;;;0.68;0.30;;;16.10;61.90;;;;;;5011557;28;20037;-81
2021/05/08 05:01:31;;;;;;;0.00;0.00;;;16.10;62.00;;;;;;5012797;28;20513;-81
2021/05/08 05:03:57;;;;;;;2.88;0.25;;;16.10;62.00;;;;;;4993628;28;20045;-80
2021/05/08 05:06:23;;;;;;;2.50;0.77;;;16.10;62.00;;;;;;5012800;28;20038;-81
2021/05/08 05:08:49;;;;;;;7.53;0.32;;;16.10;62.10;;;;;;5014112;28;20471;-81
2021/05/08 05:11:17;;;;;;;10.88;0.32;;;16.10;62.10;;;;;;5009689;28;20038;-81
2021/05/08 05:13:44;;;;;;;0.30;0.20;;;16.10;62.10;;;;;;5010425;28;20038;-81
2021/05/08 05:16:11;;;;;;;0.25;0.10;;;16.10;62.20;;;;;;5012841;28;20033;-82
2021/05/08 05:18:37;;;;;;;0.30;0.10;;;16.10;62.20;;;;;;4996460;28;20041;-81
2021/05/08 05:21:03;;;;;;;2.55;0.30;;;16.10;62.20;;;;;;5012688;28;20033;-82
2021/05/08 05:23:29;;;;;;;0.75;0.28;;;16.20;62.20;;;;;;5012792;28;20510;-81
2021/05/08 05:25:55;;;;;;;0.10;0.08;;;16.20;62.20;;;;;;5010263;28;20487;-82
2021/05/08 05:28:26;;;;;;;6.10;0.55;;;16.20;62.20;;;;;;5010874;28;20030;-82
2021/05/08 05:30:52;;;;;;;0.10;0.00;;;16.20;62.30;;;;;;5010893;28;20038;-82
2021/05/08 05:33:19;;;;;;;0.28;0.10;;;16.20;62.30;;;;;;4994890;28;20414;-82
2021/05/08 05:35:49;;;;;;;3.00;0.52;;;16.20;62.40;;;;;;5041812;28;20033;-82
2021/05/08 05:38:16;;;;;;;6.50;0.30;;;16.30;62.30;;;;;;5010844;28;20372;-82
2021/05/08 05:40:43;;;;;;;5.40;0.43;;;16.30;62.30;;;;;;5011239;28;20026;-82
2021/05/08 05:43:09;;;;;;;0.52;0.17;;;16.40;62.40;;;;;;5012217;28;20049;-82
2021/05/08 05:45:35;;;;;;;0.52;0.10;;;16.40;62.40;;;;;;5010558;28;20045;-82
2021/05/08 05:48:03;;;;;;;1.42;0.22;;;16.40;62.40;;;;;;5012162;28;20065;-81
2021/05/08 05:50:29;;;;;;;0.88;0.10;;;16.40;62.40;;;;;;5014349;28;20035;-81
2021/05/08 05:52:55;;;;;;;0.32;0.10;;;16.40;62.50;;;;;;5004920;28;20046;-82
2021/05/08 05:55:21;;;;;;;0.47;0.30;;;16.50;62.60;;;;;;5010823;28;20037;-82
2021/05/08 05:57:51;;;;;;;1.17;0.32;;;16.50;62.60;;;;;;5019687;28;20033;-82
2021/05/08 06:00:18;;;;;;;7.05;0.28;;;16.50;62.70;;;;;;4993462;28;20393;-82
2021/05/08 06:02:44;;;;;;;0.50;0.10;;;16.50;62.70;;;;;;5039556;28;20033;-82
2021/05/08 06:05:10;;;;;;;1.98;0.10;;;16.50;62.80;;;;;;4991984;28;20039;-81
2021/05/08 06:07:37;;;;;;;0.57;0.38;;;16.50;62.80;;;;;;5032704;28;20505;-81
2021/05/08 06:10:04;;;;;;;1.02;0.43;;;16.50;62.90;;;;;;5009907;28;20034;-82
2021/05/08 06:12:31;;;;;;;2.25;0.55;;;16.50;62.90;;;;;;5011620;28;20038;-81
2021/05/08 06:14:57;;;;;;;0.93;0.20;;;16.50;63.00;;;;;;4996346;28;20029;-88
2021/05/08 06:17:23;;;;;;;0.43;0.10;;;16.50;63.00;;;;;;4991102;28;20046;-81
2021/05/08 06:19:49;;;;;;;3.75;0.40;;;16.50;63.10;;;;;;5006814;28;20506;-83
2021/05/08 06:22:15;;;;;;;0.35;0.10;;;16.50;63.10;;;;;;5009331;28;20091;-86
2021/05/08 06:24:41;;;;;;;7.03;0.45;;;16.60;63.10;;;;;;4992058;28;20030;-88
2021/05/08 06:27:07;;;;;;;1.13;0.65;;;16.60;63.10;;;;;;5015556;28;20068;-86
2021/05/08 06:29:35;;;;;;;0.17;0.17;;;16.60;63.10;;;;;;5008526;28;20050;-85
2021/05/08 06:32:01;;;;;;;5.45;0.68;;;16.70;63.20;;;;;;5004740;28;20046;-82
2021/05/08 06:34:30;;;;;;;0.93;0.20;;;16.70;63.30;;;;;;5003932;28;20039;-83
2021/05/08 06:36:58;;;;;;;3.88;0.60;;;16.60;63.30;;;;;;4996887;28;20030;-83
2021/05/08 06:39:24;;;;;;;0.47;0.30;;;16.60;63.40;;;;;;5043388;28;20041;-87
2021/05/08 06:41:51;;;;;;;0.80;0.10;;;16.60;63.50;;;;;;5007545;28;20045;-84
2021/05/08 06:44:17;;;;;;;2.20;0.25;;;16.60;63.60;;;;;;5006045;28;20033;-85
2021/05/08 06:46:43;;;;;;;5.05;0.57;;;16.60;63.60;;;;;;5005594;28;20045;-84
2021/05/08 06:49:09;;;;;;;1.25;0.22;;;16.70;63.80;;;;;;5006259;28;20027;-86
2021/05/08 06:51:36;;;;;;;5.15;0.32;;;16.70;63.80;;;;;;5010656;28;20037;-85
2021/05/08 06:54:02;;;;;;;2.22;0.52;;;16.70;63.90;;;;;;5007628;28;20050;-83
2021/05/08 06:56:30;;;;;;;0.93;0.55;;;16.70;63.90;;;;;;5001026;28;20495;-84
2021/05/08 06:58:56;;;;;;;0.60;0.30;;;16.70;63.90;;;;;;5000901;28;20387;-84
2021/05/08 07:01:22;;;;;;;0.40;0.10;;;16.70;63.90;;;;;;5008002;28;20045;-83
2021/05/08 07:03:48;;;;;;;0.63;0.20;;;16.70;63.90;;;;;;5007443;28;20038;-81
2021/05/08 07:06:14;;;;;;;0.55;0.30;;;16.80;63.90;;;;;;5009120;28;20033;-81
2021/05/08 07:08:40;;;;;;;0.63;0.22;;;16.80;63.90;;;;;;5008192;28;20026;-81
2021/05/08 07:11:06;;;;;;;0.15;0.00;;;16.80;63.90;;;;;;5007733;28;20479;-85
2021/05/08 07:13:32;;;;;;;0.95;0.47;;;16.90;64.00;;;;;;5010251;28;20037;-84
2021/05/08 07:15:58;;;;;;;0.25;0.10;;;16.90;63.80;;;;;;5006554;28;20030;-84
2021/05/08 07:18:25;;;;;;;1.40;0.20;;;17.00;63.70;;;;;;5016550;28;20045;-88
2021/05/08 07:20:51;;;;;;;3.30;0.28;;;17.10;63.60;;;;;;4996133;28;20038;-89
2021/05/08 07:23:18;;;;;;;4.07;0.43;;;17.20;63.60;;;;;;4999406;28;20137;-88
2021/05/08 07:25:44;;;;;;;2.63;0.22;;;17.30;63.50;;;;;;5004063;28;20390;-89
2021/05/08 07:28:11;;;;;;;0.25;0.00;;;17.30;63.40;;;;;;5006024;28;20034;-88
2021/05/08 07:30:37;;;;;;;0.98;0.30;;;17.30;63.40;;;;;;5010403;28;20395;-90
2021/05/08 07:33:04;;;;;;;0.30;0.10;;;17.30;63.50;;;;;;4992155;28;20054;-89
2021/05/08 07:35:30;;;;;;;3.03;0.25;;;17.30;63.50;;;;;;5006698;28;20041;-88
2021/05/08 07:37:56;;;;;;;17.98;0.50;;;17.40;63.60;;;;;;5005299;28;20034;-92
2021/05/08 07:40:22;;;;;;;0.63;0.10;;;17.40;63.60;;;;;;5008555;28;20045;-92
2021/05/08 07:42:48;;;;;;;2.90;0.70;;;17.40;63.60;;;;;;5010378;28;20030;-92
2021/05/08 07:45:14;;;;;;;0.45;0.30;;;17.50;63.60;;;;;;5011868;28;20041;-93
2021/05/08 07:47:40;;;;;;;0.22;0.10;;;17.50;63.50;;;;;;5028602;28;20034;-83
2021/05/08 07:50:08;;;;;;;0.30;0.28;;;17.50;63.40;;;;;;5004990;28;20391;-84
2021/05/08 07:52:34;;;;;;;2.03;0.30;;;17.60;63.40;;;;;;5009316;28;20046;-92
2021/05/08 07:55:00;;;;;;;0.82;0.17;;;17.70;63.20;;;;;;5009025;28;20037;-91
2021/05/08 07:57:27;;;;;;;0.13;0.00;;;17.80;63.00;;;;;;4999792;28;20391;-93
2021/05/08 07:59:53;;;;;;;0.15;0.10;;;18.00;62.90;;;;;;5012933;28;20040;-92
2021/05/08 08:02:19;;;;;;;0.15;0.00;;;18.10;62.60;;;;;;5010828;28;20471;-90
2021/05/08 08:04:45;;;;;;;0.15;0.00;;;18.30;62.40;;;;;;4986751;28;20392;-85
2021/05/08 08:07:11;;;;;;;0.38;0.05;;;18.40;62.20;;;;;;5010537;28;20045;-89
2021/05/08 08:09:37;;;;;;;1.08;0.10;;;18.50;62.10;;;;;;4997241;28;20026;-90
2021/05/08 08:12:04;;;;;;;3.03;0.38;;;18.50;62.00;;;;;;5006404;28;20022;-87
2021/05/08 08:14:30;;;;;;;0.80;0.20;;;18.60;62.00;;;;;;5006169;28;20475;-86
2021/05/08 08:16:56;;;;;;;0.20;0.00;;;18.80;62.70;;;;;;5033708;28;20034;-90
2021/05/08 08:19:22;;;;;;;0.57;0.17;;;18.90;61.60;;;;;;5005178;28;20038;-91
2021/05/08 08:21:48;;;;;;;5.28;0.20;;;19.00;61.50;;;;;;5024286;28;20029;-88
2021/05/08 08:24:14;;;;;;;0.20;0.10;;;19.00;61.40;;;;;;5008220;28;20034;-89
2021/05/08 08:26:40;;;;;;;0.98;0.40;;;19.00;61.80;;;;;;5002125;28;20052;-90
2021/05/08 08:29:07;;;;;;;2.38;0.10;;;19.00;61.50;;;;;;5018783;28;20031;-90
2021/05/08 08:31:33;;;;;;;0.17;0.05;;;19.00;61.60;;;;;;5001151;28;20034;-91
2021/05/08 08:33:59;;;;;;;0.50;0.10;;;19.10;61.60;;;;;;5011749;28;20034;-90
2021/05/08 08:36:25;;;;;;;0.25;0.00;;;19.30;61.40;;;;;;5009714;28;20030;-89
2021/05/08 08:38:51;;;;;;;0.63;0.28;;;19.50;60.90;;;;;;5015131;28;20025;-92
2021/05/08 08:41:17;;;;;;;0.13;0.00;;;19.80;60.40;;;;;;4999964;28;20026;-92
2021/05/08 08:43:45;;;;;;;0.35;0.03;;;20.00;59.90;;;;;;5024573;28;20475;-88
2021/05/08 08:46:11;;;;;;;0.40;0.32;;;20.20;59.80;;;;;;5008768;28;20121;-89
2021/05/08 08:48:41;;;;;;;0.10;0.00;;;20.40;59.60;;;;;;5026580;28;20029;-90
2021/05/08 08:51:07;;;;;;;0.20;0.00;;;20.60;59.30;;;;;;5010749;28;20037;-89
2021/05/08 08:53:33;;;;;;;0.40;0.00;;;20.80;59.00;;;;;;5014319;28;20053;-81
2021/05/08 08:56:00;;;;;;;4.88;0.20;;;21.00;58.90;;;;;;5011421;28;20033;-84
2021/05/08 08:58:33;;;;;;;0.20;0.10;;;21.00;58.70;;;;;;5009331;28;20037;-88
2021/05/08 09:01:00;;;;;;;1.85;0.25;;;21.20;58.70;;;;;;5000596;28;20388;-86
2021/05/08 09:03:26;;;;;;;0.73;0.20;;;21.30;58.50;;;;;;4987784;28;20517;-86
2021/05/08 09:05:52;;;;;;;4.63;0.20;;;21.50;58.20;;;;;;4990930;28;20061;-87
2021/05/08 09:08:18;;;;;;;1.98;0.10;;;21.70;57.90;;;;;;5016621;28;20030;-86
2021/05/08 09:10:44;;;;;;;1.58;0.10;;;21.90;57.70;;;;;;5002399;28;20065;-86
2021/05/08 09:13:20;;;;;;;0.40;0.10;;;22.10;57.30;;;;;;5015928;28;20110;-88
2021/05/08 09:15:47;;;;;;;0.55;0.15;;;22.20;57.10;;;;;;5012875;28;20053;-86
2021/05/08 09:18:34;;;;;;;0.10;0.00;;;22.30;57.00;;;;;;4998389;28;20030;-86
2021/05/08 09:21:00;;;;;;;1.23;0.30;;;22.50;56.90;;;;;;5014079;28;20037;-87
2021/05/08 09:23:31;;;;;;;2.20;0.40;;;22.70;56.60;;;;;;5038155;28;20392;-85
2021/05/08 09:26:01;;;;;;;;;;;22.80;56.30;;;;;;5009955;28;20042;-88
2021/05/08 09:28:28;;;;;;;3.45;0.20;;;22.90;56.20;;;;;;5006064;28;20363;-88
2021/05/08 09:30:55;;;;;;;0.38;0.10;;;23.00;56.20;;;;;;5015780;28;20048;-90
2021/05/08 09:33:26;;;;;;;0.80;0.13;;;23.00;56.00;;;;;;4997481;28;20522;-90
2021/05/08 09:35:58;;;;;;;;;;;23.20;55.90;;;;;;5006903;28;20030;-89
2021/05/08 09:38:35;;;;;;;0.20;0.05;;;23.20;55.70;;;;;;5008389;28;19909;-89
2021/05/08 09:41:03;;;;;;;0.25;0.20;;;23.40;55.50;;;;;;5009492;28;20022;-89
2021/05/08 09:43:29;;;;;;;0.88;0.13;;;23.60;55.20;;;;;;5006990;28;20022;-89
2021/05/08 09:45:56;;;;;;;6.47;0.10;;;23.80;55.00;;;;;;5007076;28;20054;-89
2021/05/08 09:48:32;;;;;;;0.05;0.00;;;23.90;54.80;;;;;;5012423;28;20036;-88
2021/05/08 09:51:25;;;;;;;0.13;0.03;;;23.90;54.60;;;;;;4993615;28;20033;-87
2021/05/08 09:54:03;;;;;;;3.50;0.10;;;23.80;54.70;;;;;;4998793;28;20495;-87
2021/05/08 09:56:36;;;;;;;0.20;0.00;;;23.60;54.90;;;;;;5015528;28;20034;-87
2021/05/08 09:59:22;;;;;;;0.30;0.05;;;23.50;55.10;;;;;;5003462;28;20038;-83
2021/05/08 10:02:06;;;;;;;0.00;0.00;;;23.40;55.20;;;;;;5004051;28;20515;-83
2021/05/08 10:04:46;;;;;;;3.67;0.10;;;23.60;55.00;;;;;;5018241;28;20030;-88
2021/05/08 10:07:21;;;;;;;0.20;0.00;;;23.50;54.80;;;;;;4992659;28;20053;-88
2021/05/08 10:09:48;;;;;;;6.93;0.45;;;23.50;54.80;;;;;;5010486;28;20045;-85
2021/05/08 10:12:15;;;;;;;2.28;0.35;;;23.50;54.80;;;;;;5021217;28;20391;-89
2021/05/08 10:14:43;;;;;;;0.40;0.30;;;23.40;54.80;;;;;;5058554;28;20025;-94
2021/05/08 10:17:11;;;;;;;3.25;0.20;;;23.60;54.70;;;;;;5023230;28;20037;-86
2021/05/08 10:19:42;;;;;;;0.93;0.05;;;23.80;54.30;;;;;;4994998;28;20410;-88
2021/05/08 10:22:09;;;;;;;0.20;0.00;;;23.80;53.90;;;;;;5011028;28;20026;-94
2021/05/08 10:24:40;;;;;;;0.20;0.10;;;23.70;53.90;;;;;;5014416;28;20038;-93
2021/05/08 10:27:06;;;;;;;0.10;0.00;;;23.60;54.10;;;;;;5012086;28;20364;-92
2021/05/08 10:29:43;;;;;;;0.10;0.00;;;23.40;54.30;;;;;;5008416;28;20038;-86
2021/05/08 10:32:14;;;;;;;0.73;0.20;;;23.30;54.40;;;;;;4991889;28;20049;-88
2021/05/08 10:34:50;;;;;;;0.50;0.05;;;23.40;54.40;;;;;;5009196;28;20549;-92
2021/05/08 10:37:17;;;;;;;0.68;0.20;;;23.40;54.10;;;;;;5038660;28;20406;-88
2021/05/08 10:39:47;;;;;;;3.20;0.00;;;23.60;54.00;;;;;;5007903;28;20472;-84
2021/05/08 10:42:29;;;;;;;0.22;0.00;;;23.80;53.70;;;;;;5011175;28;20482;-85
2021/05/08 10:44:56;;;;;;;0.80;0.10;;;24.00;53.20;;;;;;5007902;28;20037;-89
2021/05/08 10:47:25;;;;;;;0.22;0.10;;;24.20;52.90;;;;;;4993508;28;20064;-85
2021/05/08 10:50:43;;;;;;;0.20;0.05;;;24.30;52.80;;;;;;4990706;28;20037;-88
2021/05/08 10:53:16;;;;;;;0.50;0.10;;;24.20;52.70;;;;;;5007685;28;20185;-91
2021/05/08 10:55:50;;;;;;;0.50;0.20;;;24.20;52.60;;;;;;5007714;28;20037;-85
2021/05/08 10:58:17;;;;;;;3.53;0.60;;;24.20;52.70;;;;;;4990857;28;20038;-89
2021/05/08 11:00:50;;;;;;;1.17;0.17;;;24.10;52.80;;;;;;5007381;28;20037;-89
2021/05/08 11:03:20;;;;;;;1.23;0.20;;;24.00;52.90;;;;;;4974297;28;20042;-89
2021/05/08 11:06:03;;;;;;;4.43;0.20;;;23.80;53.00;;;;;;4993399;28;20041;-85
2021/05/08 11:08:30;;;;;;;1.10;0.20;;;23.70;53.20;;;;;;5007663;28;20050;-88
2021/05/08 11:10:56;;;;;;;4.65;0.30;;;23.60;53.20;;;;;;5005863;28;20038;-88
2021/05/08 11:13:25;;;;;;;0.57;0.20;;;23.60;53.10;;;;;;5007584;28;20050;-88
2021/05/08 11:15:51;;;;;;;0.20;0.10;;;23.70;52.90;;;;;;4995923;28;20054;-91
2021/05/08 11:18:33;;;;;;;1.05;0.22;;;23.80;52.70;;;;;;5007687;28;20037;-88
2021/05/08 11:21:08;;;;;;;0.20;0.00;;;23.80;52.50;;;;;;5009114;28;20057;-90
2021/05/08 11:23:59;;;;;;;0.00;0.00;;;23.80;52.50;;;;;;5001292;28;20033;-88
2021/05/08 11:26:26;;;;;;;0.63;0.30;;;23.80;52.50;;;;;;5000340;28;20042;-86
2021/05/08 11:28:58;;;;;;;0.55;0.22;;;23.80;52.50;;;;;;5000861;28;20038;-92
2021/05/08 11:31:38;;;;;;;0.52;0.22;;;23.80;52.30;;;;;;5002405;28;20042;-89
2021/05/08 11:34:10;;;;;;;0.10;0.10;;;23.80;52.30;;;;;;5002679;28;20037;-89
2021/05/08 11:36:45;;;;;;;0.73;0.20;;;23.90;52.20;;;;;;5023902;28;20038;-85
2021/05/08 11:39:19;;;;;;;0.35;0.10;;;24.00;52.00;;;;;;5007576;28;20033;-81
2021/05/08 11:41:46;;;;;;;0.35;0.05;;;24.30;51.70;;;;;;4996605;28;20034;-88
2021/05/08 11:44:20;;;;;;;0.38;0.20;;;24.40;51.50;;;;;;5007882;28;20034;-88
2021/05/08 11:46:58;;;;;;;0.35;0.13;;;24.50;51.30;;;;;;4999824;28;20042;-83
2021/05/08 11:49:28;;;;;;;0.95;0.20;;;24.50;51.30;;;;;;5005442;28;20034;-83
2021/05/08 11:51:55;;;;;;;0.25;0.10;;;24.40;51.30;;;;;;4997812;28;20547;-84
2021/05/08 11:54:22;;;;;;;0.20;0.00;;;24.60;51.20;;;;;;5001192;28;20041;-83
2021/05/08 11:56:48;;;;;;;0.52;0.10;;;24.70;50.90;;;;;;5005775;28;20026;-83
2021/05/08 11:59:14;;;;;;;0.30;0.00;;;24.90;50.60;;;;;;4999736;28;20035;-84
2021/05/08 12:01:40;;;;;;;4.72;0.25;;;25.10;50.40;;;;;;5000394;28;20518;-83
2021/05/08 12:04:06;;;;;;;2.08;0.10;;;25.30;50.20;;;;;;5009899;28;20427;-83
2021/05/08 12:06:33;;;;;;;0.45;0.10;;;25.30;49.90;;;;;;5009160;28;20504;-83
2021/05/08 12:09:08;;;;;;;0.00;0.00;;;25.30;49.90;;;;;;5013384;28;20415;-84
2021/05/08 12:11:34;;;;;;;0.52;0.10;;;25.30;49.90;;;;;;5014929;28;20030;-84
2021/05/08 12:14:11;;;;;;;1.13;0.20;;;25.30;49.90;;;;;;5012682;28;20041;-84
2021/05/08 12:16:38;;;;;;;0.30;0.10;;;25.20;49.90;;;;;;4995792;28;20034;-84
2021/05/08 12:19:05;;;;;;;1.20;0.08;;;25.10;50.00;;;;;;5011234;28;20034;-84
2021/05/08 12:21:31;;;;;;;1.00;0.10;;;25.00;50.10;;;;;;5012520;28;20387;-84
2021/05/08 12:23:57;;;;;;;3.10;0.00;;;25.00;50.10;;;;;;5014284;28;20037;-84
2021/05/08 12:26:23;;;;;;;0.30;0.10;;;25.00;49.90;;;;;;5011513;28;20030;-83
2021/05/08 12:28:50;;;;;;;0.00;0.00;;;25.00;49.80;;;;;;5012085;28;20026;-84
2021/05/08 12:31:22;;;;;;;1.35;0.00;;;25.10;49.80;;;;;;5012253;28;20038;-84
2021/05/08 12:33:49;;;;;;;0.43;0.20;;;25.10;49.60;;;;;;5012796;28;20018;-84
2021/05/08 12:36:17;;;;;;;0.80;0.20;;;25.20;49.50;;;;;;5012046;28;20045;-82
2021/05/08 12:38:43;;;;;;;9.13;0.10;;;25.30;49.40;;;;;;5024907;28;20034;-83
2021/05/08 12:41:48;;;;;;;0.70;0.00;;;25.30;49.30;;;;;;5011528;28;20049;-82
2021/05/08 12:44:15;;;;;;;0.22;0.03;;;25.30;49.30;;;;;;5022726;28;20045;-83
2021/05/08 12:47:00;;;;;;;0.10;0.00;;;25.20;49.20;;;;;;4990716;28;20049;-82
2021/05/08 12:49:28;;;;;;;0.17;0.05;;;25.10;49.20;;;;;;5005212;28;20048;-84
2021/05/08 12:51:54;;;;;;;0.13;0.00;;;25.10;49.20;;;;;;4987548;28;20042;-83